Time;durP1;ratioP1;P1;durP2;ratioP2;P2;SDS_P1;SDS_P2;PMS_P1;PMS_P2;Temp;Humidity;BMP_temperature;BMP_pressure;BME280_temperature;BME280_humidity;BME280_pressure;Samples;Min_cycle;Max_cycle;Signal;HPM_P1;HPM_P2
2022/03/02 00:01:02;;;;;;;26.00;7.75;;;;;;;3.64;33.92;100383.59;4990054;28;20046;-75
2022/03/02 00:03:29;;;;;;;25.08;6.50;;;;;;;3.69;33.92;100378.38;4989010;28;20069;-75
2022/03/02 00:05:55;;;;;;;20.88;6.63;;;;;;;3.79;33.73;100377.91;4980070;28;20046;-76
2022/03/02 00:08:21;;;;;;;24.25;6.88;;;;;;;3.63;34.25;100371.13;4987827;28;20101;-75
2022/03/02 00:10:47;;;;;;;21.42;5.82;;;;;;;3.54;34.56;100368.66;4987915;28;20514;-75
2022/03/02 00:13:13;;;;;;;23.00;6.05;;;;;;;3.53;34.61;100368.88;4985594;28;20422;-77
2022/03/02 00:15:39;;;;;;;20.60;5.72;;;;;;;3.52;34.65;100369.91;4984456;28;20058;-77
2022/03/02 00:18:06;;;;;;;16.75;4.85;;;;;;;3.46;34.82;100363.50;4985778;28;20051;-77
2022/03/02 00:20:32;;;;;;;20.40;5.00;;;;;;;3.51;34.77;100374.47;4981937;28;20042;-77
2022/03/02 00:22:59;;;;;;;19.63;5.55;;;;;;;3.47;34.78;100372.41;4975113;28;20137;-78
2022/03/02 00:25:25;;;;;;;21.92;6.10;;;;;;;3.60;34.47;100366.16;4975501;28;20050;-77
2022/03/02 00:27:51;;;;;;;23.40;6.55;;;;;;;3.70;34.37;100366.50;4990062;28;20049;-77
2022/03/02 00:30:17;;;;;;;31.65;7.28;;;;;;;3.66;34.52;100354.47;4989814;28;21621;-77
2022/03/02 00:32:43;;;;;;;22.23;7.32;;;;;;;3.74;34.39;100362.31;4989456;28;20498;-76
2022/03/02 00:35:10;;;;;;;21.17;5.93;;;;;;;3.67;34.44;100353.41;4959573;28;20075;-76
2022/03/02 00:37:36;;;;;;;21.10;6.32;;;;;;;3.58;34.70;100349.28;4994595;28;20048;-76
2022/03/02 00:40:03;;;;;;;15.63;5.07;;;;;;;3.56;35.03;100360.34;4959575;28;20042;-75
2022/03/02 00:42:30;;;;;;;14.32;5.40;;;;;;;3.47;35.16;100357.03;4989817;28;20159;-75
2022/03/02 00:44:56;;;;;;;17.65;5.60;;;;;;;3.44;34.96;100354.78;4989185;28;20074;-75
2022/03/02 00:47:22;;;;;;;13.18;5.82;;;;;;;3.41;35.12;100338.94;4973560;28;20120;-75
2022/03/02 00:49:48;;;;;;;17.02;5.93;;;;;;;3.51;34.96;100343.91;4960562;28;20054;-75
2022/03/02 00:52:16;;;;;;;26.92;7.32;;;;;;;3.65;34.64;100347.38;4989106;28;20078;-76
2022/03/02 00:54:42;;;;;;;19.65;6.55;;;;;;;3.70;34.53;100336.75;4972733;28;20148;-76
2022/03/02 00:57:08;;;;;;;35.45;9.15;;;;;;;3.63;34.69;100355.72;4992665;28;20506;-76
2022/03/02 00:59:34;;;;;;;29.30;9.05;;;;;;;3.43;35.24;100346.84;4990725;28;20042;-75
2022/03/02 01:02:01;;;;;;;28.75;9.27;;;;;;;3.29;35.35;100343.38;4973383;28;20042;-76
2022/03/02 01:04:27;;;;;;;32.58;8.45;;;;;;;3.17;35.59;100345.91;4993072;28;20523;-76
2022/03/02 01:06:53;;;;;;;30.17;8.70;;;;;;;3.07;35.56;100347.19;4988595;28;20050;-75
2022/03/02 01:09:20;;;;;;;28.80;7.45;;;;;;;3.08;35.29;100346.13;4971224;28;20124;-76
2022/03/02 01:11:46;;;;;;;23.63;7.18;;;;;;;3.17;35.20;100335.09;4988261;28;20054;-82
2022/03/02 01:14:12;;;;;;;21.30;7.10;;;;;;;3.22;35.12;100341.50;4975156;28;20146;-81
2022/03/02 01:16:39;;;;;;;24.50;8.45;;;;;;;3.28;34.82;100342.53;4991724;28;20559;-82
2022/03/02 01:19:05;;;;;;;26.35;8.32;;;;;;;3.09;35.01;100338.84;4990268;28;20519;-80
2022/03/02 01:21:31;;;;;;;23.40;7.03;;;;;;;3.15;35.10;100342.56;4955018;28;20487;-80
2022/03/02 01:23:59;;;;;;;19.73;6.97;;;;;;;3.26;34.72;100334.63;4990382;28;20046;-80
2022/03/02 01:26:26;;;;;;;26.02;7.40;;;;;;;3.31;34.72;100327.78;4992573;28;20046;-80
2022/03/02 01:28:54;;;;;;;28.35;8.23;;;;;;;3.02;35.20;100333.47;4996287;28;20053;-79
2022/03/02 01:31:21;;;;;;;20.17;7.28;;;;;;;2.92;35.38;100314.19;4983035;28;20144;-80
2022/03/02 01:33:48;;;;;;;18.00;6.50;;;;;;;3.10;34.99;100327.00;4972516;28;20047;-80
2022/03/02 01:36:14;;;;;;;23.33;5.97;;;;;;;3.20;34.96;100313.03;4977692;28;20422;-80
2022/03/02 01:38:41;;;;;;;16.50;5.78;;;;;;;3.24;34.66;100312.41;4974733;28;20057;-80
2022/03/02 01:41:07;;;;;;;20.77;5.72;;;;;;;3.28;34.64;100322.78;4992163;28;20044;-79
2022/03/02 01:43:34;;;;;;;17.35;5.55;;;;;;;3.20;34.93;100311.19;4974520;28;20064;-80
2022/03/02 01:46:00;;;;;;;20.38;6.95;;;;;;;3.29;34.96;100324.47;4989551;28;20109;-80
2022/03/02 01:48:26;;;;;;;21.50;6.72;;;;;;;3.33;34.58;100323.00;4970147;28;20046;-80
2022/03/02 01:50:53;;;;;;;21.67;5.80;;;;;;;3.26;34.63;100302.19;4943730;28;20046;-79
2022/03/02 01:53:19;;;;;;;20.58;6.95;;;;;;;3.27;34.81;100319.25;4986915;28;20054;-79
2022/03/02 01:55:46;;;;;;;25.98;7.55;;;;;;;3.02;35.03;100311.03;4989732;28;20050;-80
2022/03/02 01:58:12;;;;;;;17.75;7.65;;;;;;;2.90;35.32;100305.47;4993981;28;21861;-79
2022/03/02 02:00:39;;;;;;;27.00;8.27;;;;;;;2.95;35.11;100302.94;4989417;28;20306;-79
2022/03/02 02:03:05;;;;;;;20.20;7.37;;;;;;;3.00;35.16;100299.59;4972327;28;20060;-79
2022/03/02 02:05:31;;;;;;;19.23;7.22;;;;;;;3.07;34.84;100297.69;4971577;28;20388;-79
2022/03/02 02:07:57;;;;;;;21.25;8.05;;;;;;;3.09;34.96;100296.47;4987116;28;20050;-79
2022/03/02 02:10:24;;;;;;;21.38;8.60;;;;;;;3.08;34.85;100289.41;4973716;28;20053;-79
2022/03/02 02:12:50;;;;;;;18.05;8.00;;;;;;;3.01;35.01;100291.28;4954145;28;20057;-79
2022/03/02 02:15:17;;;;;;;21.83;7.97;;;;;;;2.97;35.03;100287.34;4989360;28;20061;-79
2022/03/02 02:17:44;;;;;;;23.00;9.00;;;;;;;2.97;35.17;100280.09;4969568;28;20054;-78
2022/03/02 02:20:11;;;;;;;23.23;7.43;;;;;;;2.94;35.08;100276.97;4985324;28;20056;-80
2022/03/02 02:22:39;;;;;;;23.50;7.43;;;;;;;2.96;34.79;100277.59;4988700;28;20665;-80
2022/03/02 02:25:06;;;;;;;28.08;6.43;;;;;;;3.00;35.00;100272.59;4974409;28;20058;-80
2022/03/02 02:27:33;;;;;;;23.65;6.95;;;;;;;3.01;34.69;100258.84;4970932;28;20070;-79
2022/03/02 02:30:00;;;;;;;17.58;6.25;;;;;;;3.08;34.69;100261.53;4952958;28;20191;-79
2022/03/02 02:32:26;;;;;;;17.45;5.95;;;;;;;2.88;34.89;100257.03;4986988;28;20062;-80
2022/03/02 02:34:52;;;;;;;20.58;5.60;;;;;;;2.71;35.11;100266.63;4989536;28;20054;-79
2022/03/02 02:37:18;;;;;;;16.05;5.65;;;;;;;2.65;35.39;100263.75;4970833;28;20049;-80
2022/03/02 02:39:53;;;;;;;15.90;5.82;;;;;;;2.75;35.04;100260.59;4988426;28;20050;-80
2022/03/02 02:42:20;;;;;;;19.63;6.55;;;;;;;2.56;35.39;100267.72;4970147;28;20089;-80
2022/03/02 02:44:46;;;;;;;20.27;6.38;;;;;;;2.61;35.21;100258.97;4990397;28;20144;-80
2022/03/02 02:47:12;;;;;;;15.70;5.20;;;;;;;2.67;35.01;100260.81;4991224;28;20080;-81
2022/03/02 02:49:38;;;;;;;15.00;5.72;;;;;;;2.46;35.29;100254.63;4976872;28;20054;-80
2022/03/02 02:52:05;;;;;;;15.07;5.75;;;;;;;2.32;35.38;100251.09;4971350;28;20054;-80
2022/03/02 02:54:31;;;;;;;14.13;5.60;;;;;;;2.33;35.44;100255.47;4975524;28;20053;-80
2022/03/02 02:56:58;;;;;;;21.27;7.50;;;;;;;2.22;35.77;100248.84;4990423;28;20101;-78
2022/03/02 02:59:24;;;;;;;26.70;6.28;;;;;;;2.45;35.28;100252.13;4999047;28;20097;-79
2022/03/02 03:01:51;;;;;;;18.30;6.25;;;;;;;2.60;34.90;100252.75;4989195;28;20357;-80
2022/03/02 03:04:17;;;;;;;13.63;4.93;;;;;;;2.70;34.64;100249.59;4993377;28;20132;-80
2022/03/02 03:06:43;;;;;;;20.83;5.05;;;;;;;2.62;34.58;100247.94;4989512;28;20054;-79
2022/03/02 03:09:10;;;;;;;13.65;4.93;;;;;;;2.43;35.14;100244.28;4994709;28;20050;-80
2022/03/02 03:11:38;;;;;;;22.48;8.23;;;;;;;2.38;35.19;100242.19;4990964;28;20530;-80
2022/03/02 03:14:08;;;;;;;24.20;10.73;;;;;;;2.47;35.09;100237.41;4993754;28;20066;-80
2022/03/02 03:16:34;;;;;;;17.50;7.50;;;;;;;2.52;34.95;100243.00;4994359;28;20114;-80
2022/03/02 03:19:01;;;;;;;16.10;6.13;;;;;;;2.26;34.90;100206.09;4993183;28;20042;-79
2022/03/02 03:21:27;;;;;;;16.33;5.00;;;;;;;2.39;34.94;100206.06;4990237;28;20507;-79
2022/03/02 03:23:53;;;;;;;11.65;4.35;;;;;;;2.58;34.69;100216.22;4990723;28;20141;-80
2022/03/02 03:26:19;;;;;;;12.55;4.30;;;;;;;2.74;34.63;100225.69;4976239;28;20534;-79
2022/03/02 03:28:46;;;;;;;14.80;5.13;;;;;;;2.68;34.54;100222.81;4974269;28;20046;-80
2022/03/02 03:31:13;;;;;;;19.45;5.82;;;;;;;2.49;35.06;100221.81;4978316;28;20490;-79
2022/03/02 03:33:39;;;;;;;15.05;4.80;;;;;;;2.53;35.11;100216.84;4989833;28;20080;-79
2022/03/02 03:36:05;;;;;;;12.00;4.90;;;;;;;2.63;34.87;100213.69;4987869;28;20392;-79
2022/03/02 03:38:32;;;;;;;18.75;5.25;;;;;;;2.69;34.78;100215.53;4976080;28;20073;-80
2022/03/02 03:40:58;;;;;;;14.60;5.18;;;;;;;2.74;34.76;100207.66;4953736;28;20085;-78
2022/03/02 03:43:24;;;;;;;10.90;4.15;;;;;;;2.71;34.51;100202.63;4970691;28;20046;-79
2022/03/02 03:45:51;;;;;;;12.98;4.47;;;;;;;2.72;34.45;100207.00;4972854;28;20058;-80
2022/03/02 03:48:18;;;;;;;11.55;4.38;;;;;;;2.76;34.43;100208.25;4972971;28;20040;-80
2022/03/02 03:50:45;;;;;;;15.75;4.22;;;;;;;2.67;34.79;100202.25;4993181;28;20056;-80
2022/03/02 03:53:11;;;;;;;11.20;3.83;;;;;;;2.61;34.87;100208.50;4973503;28;20043;-80
2022/03/02 03:55:38;;;;;;;13.85;4.80;;;;;;;2.63;34.69;100205.59;4959383;28;20502;-79
2022/03/02 03:58:05;;;;;;;15.43;5.72;;;;;;;2.63;35.05;100201.00;4971838;28;20084;-79
2022/03/02 04:00:31;;;;;;;19.93;7.13;;;;;;;2.63;34.78;100206.41;4980781;28;20042;-78
2022/03/02 04:02:58;;;;;;;19.15;5.80;;;;;;;2.66;34.84;100213.25;4990618;28;20058;-79
2022/03/02 04:05:25;;;;;;;14.98;6.35;;;;;;;2.63;35.03;100203.72;4973488;28;20069;-79
2022/03/02 04:07:51;;;;;;;17.85;7.47;;;;;;;2.51;34.90;100189.22;4995310;28;20096;-78
2022/03/02 04:10:17;;;;;;;25.35;8.15;;;;;;;2.62;34.76;100220.94;4975197;28;20050;-80
2022/03/02 04:12:46;;;;;;;20.42;8.25;;;;;;;2.57;35.15;100209.97;4956178;28;20046;-80
2022/03/02 04:15:12;;;;;;;18.42;6.82;;;;;;;2.57;34.98;100204.56;4971119;28;20580;-80
2022/03/02 04:17:39;;;;;;;17.55;6.53;;;;;;;2.53;35.14;100206.03;4972123;28;20050;-81
2022/03/02 04:20:07;;;;;;;18.10;5.72;;;;;;;2.46;35.00;100192.56;4978058;28;20120;-79
2022/03/02 04:22:34;;;;;;;18.73;5.28;;;;;;;2.47;35.16;100199.59;4990193;28;20406;-80
2022/03/02 04:25:00;;;;;;;18.75;5.60;;;;;;;2.52;35.10;100199.78;4999215;28;20062;-79
2022/03/02 04:27:26;;;;;;;13.00;4.90;;;;;;;2.49;35.29;100202.91;4972767;28;20077;-79
2022/03/02 04:29:52;;;;;;;13.10;5.07;;;;;;;2.36;35.44;100195.69;4987411;28;20129;-79
2022/03/02 04:32:19;;;;;;;13.05;4.70;;;;;;;2.42;35.34;100194.03;4971778;28;20538;-81
2022/03/02 04:34:45;;;;;;;15.35;5.65;;;;;;;2.51;35.32;100191.94;4957262;28;20050;-81
2022/03/02 04:37:11;;;;;;;26.67;5.82;;;;;;;2.52;35.31;100199.78;4987063;28;20056;-81
2022/03/02 04:39:38;;;;;;;22.25;6.95;;;;;;;2.54;35.27;100199.59;4970019;28;20537;-80
2022/03/02 04:42:05;;;;;;;26.85;7.05;;;;;;;2.50;35.19;100192.97;4985601;28;20054;-81
2022/03/02 04:44:31;;;;;;;21.33;7.10;;;;;;;2.47;35.41;100193.38;4988848;28;20050;-80
2022/03/02 04:46:57;;;;;;;26.20;9.05;;;;;;;2.37;35.40;100196.50;4987343;28;20050;-81
2022/03/02 04:49:24;;;;;;;22.98;9.00;;;;;;;2.10;35.87;100202.78;4989290;28;20525;-81
2022/03/02 04:51:51;;;;;;;29.05;10.63;;;;;;;1.69;36.24;100172.28;4986757;28;20124;-81
2022/03/02 04:57:05;;;;;;;19.77;8.55;;;;;;;1.77;36.71;100194.69;4987796;28;20124;-79
2022/03/02 04:59:32;;;;;;;25.85;9.45;;;;;;;1.90;36.52;100193.88;4975289;28;20101;-79
2022/03/02 05:01:58;;;;;;;22.92;9.25;;;;;;;1.96;36.37;100183.09;4995915;28;20077;-78
2022/03/02 05:04:24;;;;;;;23.50;9.73;;;;;;;2.03;36.37;100188.47;4979255;28;20055;-79
2022/03/02 05:06:50;;;;;;;25.73;8.82;;;;;;;2.02;36.25;100178.69;4975774;28;20065;-80
2022/03/02 05:09:17;;;;;;;24.85;7.32;;;;;;;2.13;36.11;100180.78;4988955;28;20042;-80
2022/03/02 05:11:43;;;;;;;17.77;7.15;;;;;;;2.24;35.86;100183.88;4987998;28;20062;-80
2022/03/02 05:14:10;;;;;;;21.25;8.25;;;;;;;2.25;35.85;100180.13;4971792;28;20046;-81
2022/03/02 05:16:36;;;;;;;19.83;7.90;;;;;;;2.34;35.60;100180.75;4971262;28;20305;-81
2022/03/02 05:19:03;;;;;;;22.67;8.13;;;;;;;2.33;35.95;100176.38;4971308;28;20428;-82
2022/03/02 05:21:29;;;;;;;22.60;7.68;;;;;;;2.36;35.87;100165.16;4989579;28;20046;-80
2022/03/02 05:23:55;;;;;;;17.85;5.72;;;;;;;2.43;35.74;100165.16;4960370;28;20050;-76
2022/03/02 05:26:24;;;;;;;18.08;6.75;;;;;;;2.45;35.83;100166.59;4989313;28;20073;-75
2022/03/02 05:28:50;;;;;;;23.27;8.57;;;;;;;2.51;35.75;100173.84;4989310;28;20064;-76
2022/03/02 05:31:17;;;;;;;20.83;7.75;;;;;;;2.53;35.78;100179.03;4981738;28;20141;-76
2022/03/02 05:33:43;;;;;;;20.73;8.52;;;;;;;2.61;35.77;100176.09;4992657;28;20061;-77
2022/03/02 05:36:10;;;;;;;27.43;9.13;;;;;;;2.59;36.02;100170.06;4976269;28;20110;-76
2022/03/02 05:38:37;;;;;;;26.63;8.82;;;;;;;2.51;35.85;100167.63;4994585;28;20050;-77
2022/03/02 05:41:03;;;;;;;32.58;8.93;;;;;;;2.58;36.08;100165.72;4971596;28;20050;-76
2022/03/02 05:43:29;;;;;;;21.13;7.82;;;;;;;2.64;35.94;100154.06;4987478;28;20050;-77
2022/03/02 05:45:56;;;;;;;18.02;5.78;;;;;;;2.63;35.60;100141.59;4959896;28;20045;-76
2022/03/02 05:48:25;;;;;;;16.10;5.50;;;;;;;2.82;35.68;100156.06;4956638;28;20313;-77
2022/03/02 05:50:51;;;;;;;13.53;4.83;;;;;;;2.94;35.57;100156.22;4995280;28;20050;-77
2022/03/02 05:53:17;;;;;;;12.85;4.55;;;;;;;3.01;35.46;100161.59;4987963;28;21387;-76
2022/03/02 05:55:44;;;;;;;15.57;5.82;;;;;;;3.09;35.57;100161.34;4951463;28;20145;-77
2022/03/02 05:58:10;;;;;;;19.73;6.10;;;;;;;3.16;35.33;100158.63;4974717;28;20093;-77
2022/03/02 06:00:36;;;;;;;69.53;29.05;;;;;;;3.18;35.43;100144.88;4971524;28;20061;-77
2022/03/02 06:03:03;;;;;;;38.97;15.17;;;;;;;3.26;35.39;100153.53;4980765;28;20137;-77
2022/03/02 06:05:30;;;;;;;32.28;11.27;;;;;;;3.36;35.07;100144.97;4987295;28;20092;-79
2022/03/02 06:07:56;;;;;;;21.52;8.70;;;;;;;3.46;35.25;100141.78;4970732;28;20042;-75
2022/03/02 06:10:23;;;;;;;28.92;11.10;;;;;;;3.50;35.01;100144.84;4987213;28;20057;-77
2022/03/02 06:12:50;;;;;;;26.42;10.65;;;;;;;3.50;35.35;100143.00;4987811;28;20057;-75
2022/03/02 06:15:16;;;;;;;34.65;14.05;;;;;;;3.48;35.20;100136.97;4990557;28;20050;-74
2022/03/02 06:17:43;;;;;;;34.78;13.57;;;;;;;3.34;35.38;100147.03;4987787;28;20057;-73
2022/03/02 06:20:11;;;;;;;37.07;13.27;;;;;;;3.27;35.55;100127.34;4975963;28;20055;-78
2022/03/02 06:22:38;;;;;;;33.15;13.45;;;;;;;3.34;35.56;100140.81;4939981;28;20868;-78
2022/03/02 06:25:07;;;;;;;36.22;13.32;;;;;;;3.45;35.59;100148.25;4979054;28;20077;-78
2022/03/02 06:27:34;;;;;;;42.90;12.52;;;;;;;3.55;35.31;100137.75;4991983;28;20053;-78
2022/03/02 06:30:00;;;;;;;44.95;12.93;;;;;;;3.67;35.10;100140.59;4994736;28;20414;-78
2022/03/02 06:32:28;;;;;;;37.53;10.43;;;;;;;3.71;35.11;100140.94;4991887;28;20046;-78
2022/03/02 06:34:54;;;;;;;35.70;10.85;;;;;;;3.78;35.03;100135.50;4992272;28;20089;-79
2022/03/02 06:37:20;;;;;;;32.20;10.30;;;;;;;3.82;34.89;100134.00;4983091;28;20538;-78
2022/03/02 06:39:48;;;;;;;26.83;9.65;;;;;;;3.86;34.88;100127.09;4960504;28;20046;-78
2022/03/02 06:42:17;;;;;;;24.02;6.43;;;;;;;3.96;34.95;100130.13;5000790;28;20050;-78
2022/03/02 06:44:50;;;;;;;18.42;7.07;;;;;;;4.11;34.90;100137.06;4984368;28;20411;-78
2022/03/02 06:47:19;;;;;;;22.60;7.03;;;;;;;4.22;34.88;100128.19;4975284;28;20084;-78
2022/03/02 06:50:02;;;;;;;18.48;7.20;;;;;;;4.22;34.80;100121.97;4997224;28;20462;-78
2022/03/02 06:52:34;;;;;;;15.45;6.47;;;;;;;4.31;34.75;100126.03;4957991;28;20042;-78
2022/03/02 06:55:04;;;;;;;19.30;6.93;;;;;;;4.44;34.89;100121.50;4974264;28;20108;-78
2022/03/02 06:57:32;;;;;;;29.67;9.55;;;;;;;4.48;34.73;100122.72;4980102;28;20419;-78
2022/03/02 07:00:01;;;;;;;37.55;11.00;;;;;;;4.67;34.61;100121.63;4998651;28;20042;-77
2022/03/02 07:02:38;;;;;;;33.40;10.65;;;;;;;4.81;34.40;100118.75;4993205;28;20546;-77
2022/03/02 07:05:06;;;;;;;29.00;9.70;;;;;;;4.77;34.53;100109.44;4999141;28;20050;-77
2022/03/02 07:07:34;;;;;;;35.13;9.10;;;;;;;4.91;34.39;100116.34;4975363;28;20046;-76
2022/03/02 07:10:01;;;;;;;24.52;9.02;;;;;;;4.93;34.13;100121.53;4996362;28;20084;-75
2022/03/02 07:12:29;;;;;;;22.35;8.50;;;;;;;5.00;34.17;100119.53;4999387;28;20573;-76
2022/03/02 07:14:55;;;;;;;21.42;6.15;;;;;;;5.01;33.64;100120.38;4996482;28;20047;-76
2022/03/02 07:17:22;;;;;;;20.60;5.78;;;;;;;4.78;34.10;100117.34;4983723;28;20525;-76
2022/03/02 07:19:49;;;;;;;14.10;5.50;;;;;;;4.76;34.22;100118.63;4962677;28;20070;-76
2022/03/02 07:22:17;;;;;;;16.67;5.88;;;;;;;4.76;34.28;100114.03;4999179;28;20070;-79
2022/03/02 07:24:52;;;;;;;15.80;6.00;;;;;;;4.64;34.13;100105.03;4977808;28;20503;-78
2022/03/02 07:27:20;;;;;;;15.48;5.57;;;;;;;4.81;34.32;100114.19;4975587;28;20054;-78
2022/03/02 07:29:49;;;;;;;31.33;7.80;;;;;;;4.87;34.36;100117.84;4969863;28;20532;-79
2022/03/02 07:32:21;;;;;;;24.98;9.77;;;;;;;4.99;34.42;100117.91;4991006;28;20050;-79
2022/03/02 07:34:53;;;;;;;27.17;9.25;;;;;;;4.86;34.38;100107.22;4967288;28;20050;-76
2022/03/02 07:37:22;;;;;;;28.38;9.25;;;;;;;4.94;34.46;100109.63;4972857;28;20057;-78
2022/03/02 07:39:48;;;;;;;29.90;9.63;;;;;;;5.16;34.23;100109.13;4990581;28;20407;-80
2022/03/02 07:42:14;;;;;;;30.60;10.77;;;;;;;5.08;34.58;100083.16;4989899;28;20054;-79
2022/03/02 07:44:44;;;;;;;44.33;10.18;;;;;;;5.22;34.47;100098.16;5000728;28;20514;-80
2022/03/02 07:47:16;;;;;;;25.40;9.63;;;;;;;5.13;34.47;100060.78;4990640;28;20050;-80
2022/03/02 07:50:04;;;;;;;26.25;8.52;;;;;;;5.06;34.03;100026.47;4985062;28;20073;-78
2022/03/02 07:52:31;;;;;;;34.53;8.73;;;;;;;5.06;33.76;99985.81;4969807;28;20086;-78
2022/03/02 07:55:09;;;;;;;25.73;7.95;;;;;;;5.35;33.50;100009.53;4991124;28;20046;-79
2022/03/02 07:57:38;;;;;;;22.60;8.35;;;;;;;5.94;33.55;100088.22;4988045;28;20035;-79
2022/03/02 08:00:09;;;;;;;35.75;8.38;;;;;;;6.08;33.13;100088.81;4994304;28;20043;-79
2022/03/02 08:05:23;;;;;;;37.90;9.85;;;;;;;6.33;33.01;100076.84;4977217;28;20569;-77
2022/03/02 08:07:49;;;;;;;32.60;10.25;;;;;;;6.37;32.82;100071.78;4972048;28;20112;-78
2022/03/02 08:10:17;;;;;;;21.80;7.90;;;;;;;6.42;32.77;100074.59;4986517;28;20057;-77
2022/03/02 08:12:43;;;;;;;;;;;;;;;6.45;32.71;100076.00;4973324;28;20525;-75
2022/03/02 08:15:11;;;;;;;20.40;7.35;;;;;;;6.32;32.77;100069.78;4994432;28;19926;-76
2022/03/02 08:17:37;;;;;;;;;;;;;;;6.39;32.39;100069.66;4977569;28;20048;-79
2022/03/02 08:20:05;;;;;;;23.90;7.60;;;;;;;6.41;32.29;100063.97;4992490;28;19977;-80
2022/03/02 08:22:34;;;;;;;18.42;6.47;;;;;;;6.43;32.36;100059.13;4991920;28;20581;-80
2022/03/02 08:25:06;;;;;;;18.98;6.88;;;;;;;6.52;32.04;100055.78;4989758;28;20054;-79
2022/03/02 08:27:33;;;;;;;23.30;7.82;;;;;;;6.57;32.03;100065.09;4990522;28;20081;-78
2022/03/02 08:30:01;;;;;;;26.85;8.88;;;;;;;6.63;31.94;100047.81;4970868;28;20165;-78
2022/03/02 08:32:35;;;;;;;16.13;6.43;;;;;;;6.77;31.83;100049.19;4980113;28;20387;-77
2022/03/02 08:35:01;;;;;;;20.75;7.40;;;;;;;6.94;31.80;100046.50;4946834;28;20125;-76
2022/03/02 08:37:30;;;;;;;29.55;7.50;;;;;;;7.03;31.47;100027.09;4974677;28;20419;-72
2022/03/02 08:39:56;;;;;;;;;;;;;;;7.20;31.40;100029.81;4984620;28;20384;-74
2022/03/02 08:42:22;;;;;;;18.90;6.72;;;;;;;7.30;31.42;100026.41;4990622;28;19936;-74
2022/03/02 08:44:48;;;;;;;22.58;5.70;;;;;;;7.36;31.26;100022.72;4990789;28;20050;-75
2022/03/02 08:47:14;;;;;;;21.05;6.97;;;;;;;7.47;30.90;100018.25;4994854;28;20073;-75
2022/03/02 08:49:41;;;;;;;20.52;7.25;;;;;;;7.44;31.25;100013.31;4988612;28;20053;-75
2022/03/02 08:52:08;;;;;;;17.77;6.60;;;;;;;7.54;30.82;100012.66;4980666;28;20458;-77
2022/03/02 08:54:43;;;;;;;20.63;6.87;;;;;;;7.83;30.56;100002.44;4985994;28;20046;-78
2022/03/02 08:57:10;;;;;;;26.35;6.85;;;;;;;8.01;30.57;100001.31;4992481;28;20049;-79
2022/03/02 08:59:38;;;;;;;24.35;7.25;;;;;;;8.16;30.31;99994.41;4993009;28;20052;-78
2022/03/02 09:02:06;;;;;;;23.52;6.75;;;;;;;8.28;30.24;100003.28;4968942;28;20050;-78
2022/03/02 09:04:35;;;;;;;24.52;7.70;;;;;;;8.36;30.28;100004.75;4986369;28;20046;-79
2022/03/02 09:07:03;;;;;;;23.05;7.90;;;;;;;8.42;30.20;99986.53;4966276;28;20097;-79
2022/03/02 09:09:29;;;;;;;25.70;8.98;;;;;;;8.68;29.94;99993.13;4989589;28;20044;-79
2022/03/02 09:11:55;;;;;;;28.75;8.45;;;;;;;8.81;29.35;99991.88;4971776;28;20054;-79
2022/03/02 09:14:22;;;;;;;27.63;8.45;;;;;;;8.88;29.44;99991.66;4981586;28;20037;-78
2022/03/02 09:16:48;;;;;;;24.20;8.93;;;;;;;8.83;29.54;99986.97;4968446;28;20057;-78
2022/03/02 09:19:15;;;;;;;33.53;8.30;;;;;;;8.95;29.23;99981.34;5000121;28;20046;-77
2022/03/02 09:21:42;;;;;;;29.55;9.02;;;;;;;9.14;29.14;99973.59;4974287;28;20513;-77
2022/03/02 09:24:10;;;;;;;25.33;8.30;;;;;;;9.29;29.21;99974.81;4987448;28;20050;-73
2022/03/02 09:26:36;;;;;;;20.85;8.30;;;;;;;9.33;28.85;99967.72;4994030;28;20814;-77
2022/03/02 09:29:05;;;;;;;28.80;7.83;;;;;;;9.42;28.56;99971.63;5000776;28;20038;-78
2022/03/02 09:31:33;;;;;;;18.95;7.43;;;;;;;9.59;28.44;99968.72;4998899;28;20309;-77
2022/03/02 09:34:03;;;;;;;29.50;7.63;;;;;;;9.75;27.92;99955.97;4971590;28;20041;-78
2022/03/02 09:36:33;;;;;;;29.00;8.32;;;;;;;9.92;27.55;99952.22;4990962;28;20100;-78
2022/03/02 09:39:01;;;;;;;25.85;9.50;;;;;;;9.98;27.46;99956.59;4973300;28;20457;-79
2022/03/02 09:41:33;;;;;;;32.67;10.18;;;;;;;10.23;27.55;99948.78;4988512;28;20046;-79
2022/03/02 09:44:00;;;;;;;30.73;10.05;;;;;;;10.46;27.43;99955.72;4986334;28;20054;-79
2022/03/02 09:46:33;;;;;;;35.97;11.17;;;;;;;10.53;27.34;99931.66;4993234;28;20042;-78
2022/03/02 09:49:05;;;;;;;25.95;8.68;;;;;;;10.87;26.92;99941.28;4969808;28;22730;-79
2022/03/02 09:51:33;;;;;;;28.70;8.65;;;;;;;11.16;27.06;99940.69;4969709;28;20102;-79
2022/03/02 09:54:02;;;;;;;27.42;7.88;;;;;;;11.37;26.49;99936.00;4976198;28;20425;-79
2022/03/02 09:56:31;;;;;;;26.35;7.35;;;;;;;11.65;26.37;99935.69;4973931;28;20478;-80
2022/03/02 09:59:00;;;;;;;21.65;7.80;;;;;;;11.92;26.10;99929.81;4971022;28;20046;-79
2022/03/02 10:01:31;;;;;;;19.25;6.57;;;;;;;12.11;25.81;99924.56;4969377;28;20053;-80
2022/03/02 10:04:06;;;;;;;25.75;8.70;;;;;;;12.17;25.49;99923.44;4973448;28;20100;-79
2022/03/02 10:06:37;;;;;;;19.13;6.63;;;;;;;12.41;25.36;99921.91;4974608;28;20151;-79
2022/03/02 10:09:05;;;;;;;16.05;6.55;;;;;;;12.59;25.07;99925.91;4990867;28;20050;-79
2022/03/02 10:11:34;;;;;;;25.70;6.82;;;;;;;12.47;24.94;99920.75;4974547;28;20857;-78
2022/03/02 10:14:00;;;;;;;19.48;6.82;;;;;;;12.66;24.75;99912.69;4994050;28;20050;-79
2022/03/02 10:16:28;;;;;;;25.88;7.65;;;;;;;12.71;24.09;99914.56;4993106;28;20860;-79
2022/03/02 10:18:57;;;;;;;25.02;7.30;;;;;;;12.85;24.44;99912.00;4992879;28;20145;-78
2022/03/02 10:21:32;;;;;;;22.65;7.10;;;;;;;13.19;24.13;99900.19;4988532;28;20068;-78
2022/03/02 10:24:00;;;;;;;22.10;6.78;;;;;;;13.67;24.01;99902.13;4956693;28;20042;-78
2022/03/02 10:26:29;;;;;;;21.75;7.47;;;;;;;13.96;23.56;99906.72;4976999;28;20426;-78
2022/03/02 10:29:02;;;;;;;18.92;6.80;;;;;;;14.26;23.27;99906.59;4994636;28;20128;-77
2022/03/02 10:31:59;;;;;;;24.92;6.80;;;;;;;14.71;22.80;99900.69;4991749;28;20513;-79
2022/03/02 10:34:32;;;;;;;19.40;6.05;;;;;;;15.00;22.84;99903.25;4990370;28;20510;-79
2022/03/02 10:37:08;;;;;;;16.88;5.28;;;;;;;15.18;22.39;99898.00;4956206;28;20426;-79
2022/03/02 10:39:49;;;;;;;19.55;6.07;;;;;;;15.15;21.84;99893.09;4970390;28;20065;-78
2022/03/02 10:42:20;;;;;;;14.63;5.38;;;;;;;15.30;21.03;99898.31;4988001;28;20229;-78
2022/03/02 10:45:05;;;;;;;22.33;6.82;;;;;;;15.84;20.96;99895.06;4976897;28;20046;-77
2022/03/02 10:47:33;;;;;;;20.33;6.57;;;;;;;16.14;20.37;99881.75;4988347;28;20161;-78
2022/03/02 10:50:00;;;;;;;;;;;;;;;16.45;20.29;99885.75;4993987;28;20109;-72
2022/03/02 10:52:27;;;;;;;16.98;6.32;;;;;;;16.93;19.93;99877.97;4991206;28;20084;-72
2022/03/02 10:54:57;;;;;;;27.63;7.43;;;;;;;17.16;19.23;99876.00;4975948;28;20108;-72
2022/03/02 10:57:25;;;;;;;17.33;5.72;;;;;;;17.65;18.82;99869.69;4956596;28;20050;-73
2022/03/02 10:59:56;;;;;;;24.13;6.35;;;;;;;17.58;19.00;99864.63;4991653;28;20130;-72
2022/03/02 11:02:23;;;;;;;21.23;7.03;;;;;;;17.59;19.25;99863.47;4992071;28;20150;-73
2022/03/02 11:04:54;;;;;;;19.83;6.95;;;;;;;17.97;18.60;99856.56;4962574;28;20136;-73
2022/03/02 11:07:21;;;;;;;20.15;7.28;;;;;;;18.23;18.84;99856.63;4973462;28;20054;-73
2022/03/02 11:09:49;;;;;;;25.58;6.25;;;;;;;18.63;18.16;99849.28;4971062;28;20437;-73
2022/03/02 11:12:20;;;;;;;19.55;6.30;;;;;;;18.44;18.08;99842.13;4990423;28;20341;-77
2022/03/02 11:14:56;;;;;;;24.98;6.40;;;;;;;17.98;18.53;99847.13;4959152;28;20053;-77
2022/03/02 11:17:23;;;;;;;21.33;6.30;;;;;;;17.46;18.45;99840.38;4987807;28;20046;-77
2022/03/02 11:19:50;;;;;;;15.70;5.25;;;;;;;16.79;19.18;99844.91;4993741;28;20084;-76
2022/03/02 11:22:20;;;;;;;16.92;5.57;;;;;;;16.48;19.21;99843.72;4972621;28;20050;-77
2022/03/02 11:24:47;;;;;;;15.70;5.28;;;;;;;16.34;19.18;99837.44;4974957;28;20038;-76
2022/03/02 11:27:28;;;;;;;20.90;6.15;;;;;;;16.63;19.13;99830.69;4973346;28;20161;-77
2022/03/02 11:30:08;;;;;;;20.38;5.72;;;;;;;16.39;19.04;99831.81;4996669;28;20498;-77
2022/03/02 11:32:36;;;;;;;14.73;5.00;;;;;;;16.15;19.59;99819.13;4955271;28;20050;-77
2022/03/02 11:35:04;;;;;;;16.70;5.90;;;;;;;16.21;19.18;99825.34;4959785;28;20419;-77